createdAt,value
2018-04-11T00:00:11.091Z,60.04
2018-04-11T00:02:39.497Z,58.75
2018-04-11T00:05:07.866Z,59.23
2018-04-11T00:07:36.237Z,58.84
2018-04-11T00:10:04.606Z,59.52
2018-04-11T00:12:33.048Z,58.56
2018-04-11T00:15:01.446Z,59.21
2018-04-11T00:17:29.801Z,58.27
2018-04-11T00:19:58.176Z,58.78
2018-04-11T00:22:26.550Z,58.58
2018-04-11T00:24:54.907Z,59.46
2018-04-11T00:27:23.270Z,59.79
2018-04-11T00:29:51.805Z,61.43
2018-04-11T00:32:20.204Z,59.85
2018-04-11T00:34:48.556Z,59.25
2018-04-11T00:37:16.986Z,59.88
2018-04-11T00:39:45.369Z,60.25
2018-04-11T00:42:13.817Z,57.81
2018-04-11T00:44:42.209Z,56.75
2018-04-11T00:47:10.718Z,57.72
2018-04-11T00:49:39.077Z,57.79
2018-04-11T00:52:07.437Z,56.17
2018-04-11T00:54:35.808Z,55.90
2018-04-11T00:57:04.175Z,55.60
2018-04-11T00:59:32.597Z,57.14
2018-04-11T01:02:00.959Z,57.98
2018-04-11T01:04:29.353Z,57.78
2018-04-11T01:06:57.719Z,60.21
2018-04-11T01:09:26.094Z,58.87
2018-04-11T01:11:54.699Z,57.85
2018-04-11T01:14:23.174Z,59.18
2018-04-11T01:16:51.535Z,61.01
2018-04-11T01:19:19.920Z,61.74
2018-04-11T01:21:48.327Z,62.86
2018-04-11T01:24:16.689Z,61.12
2018-04-11T01:26:45.060Z,60.61
2018-04-11T01:29:13.423Z,61.88
2018-04-11T01:31:41.788Z,62.60
2018-04-11T01:34:10.318Z,61.58
2018-04-11T01:36:38.694Z,65.14
2018-04-11T01:39:07.086Z,66.20
2018-04-11T01:41:35.437Z,63.07
2018-04-11T01:44:03.793Z,62.53
2018-04-11T01:46:32.166Z,62.84
2018-04-11T01:49:00.665Z,62.58
2018-04-11T01:51:29.178Z,64.20
2018-04-11T01:53:57.537Z,65.60
2018-04-11T01:56:26.013Z,68.07
2018-04-11T01:58:54.381Z,66.45
2018-04-11T02:01:22.764Z,65.32
2018-04-11T02:03:51.208Z,65.47
2018-04-11T02:06:19.602Z,64.10
2018-04-11T02:08:47.965Z,65.25
2018-04-11T02:11:16.343Z,66.25
2018-04-11T02:13:44.762Z,67.95
2018-04-11T02:16:13.150Z,68.30
2018-04-11T02:18:41.511Z,67.46
2018-04-11T02:21:09.888Z,67.75
2018-04-11T02:23:38.285Z,66.73
2018-04-11T02:26:06.885Z,66.18
2018-04-11T02:28:35.253Z,65.16
2018-04-11T02:31:03.668Z,65.79
2018-04-11T02:33:32.024Z,65.07
2018-04-11T02:36:00.450Z,63.22
2018-04-11T02:38:28.814Z,63.76
2018-04-11T02:40:57.202Z,63.30
2018-04-11T02:43:25.574Z,62.92
2018-04-11T02:45:53.953Z,63.08
2018-04-11T02:48:22.364Z,62.85
2018-04-11T02:50:50.743Z,62.67
2018-04-11T02:53:19.177Z,63.33
2018-04-11T02:55:47.542Z,63.36
2018-04-11T02:58:15.908Z,65.12
2018-04-11T03:00:44.379Z,65.81
2018-04-11T03:03:12.748Z,65.03
2018-04-11T03:05:41.101Z,65.18
2018-04-11T03:08:09.463Z,66.20
2018-04-11T03:10:37.916Z,64.91
2018-04-11T03:13:06.270Z,64.29
2018-04-11T03:15:34.638Z,63.63
2018-04-11T03:18:03.055Z,63.14
2018-04-11T03:20:31.595Z,62.78
2018-04-11T03:22:59.945Z,63.53
2018-04-11T03:25:28.315Z,63.60
2018-04-11T03:27:56.694Z,64.97
2018-04-11T03:30:25.074Z,64.90
2018-04-11T03:32:53.517Z,64.42
2018-04-11T03:35:21.869Z,64.17
2018-04-11T03:37:50.229Z,64.28
2018-04-11T03:40:18.592Z,63.11
2018-04-11T03:42:46.944Z,64.06
2018-04-11T03:45:15.346Z,64.64
2018-04-11T03:47:43.788Z,65.01
2018-04-11T03:50:12.182Z,65.67
2018-04-11T03:52:40.548Z,64.47
2018-04-11T03:55:08.974Z,65.22
2018-04-11T03:57:37.328Z,66.17
2018-04-11T04:00:05.716Z,65.17
2018-04-11T04:02:34.101Z,65.25
2018-04-11T04:05:02.486Z,63.72
2018-04-11T04:07:31.830Z,63.35
2018-04-11T04:10:00.184Z,62.76
2018-04-11T04:12:28.557Z,62.44
2018-04-11T04:15:08.599Z,63.29
2018-04-11T04:17:48.701Z,62.69
2018-04-11T04:20:28.765Z,62.61
2018-04-11T04:22:57.165Z,62.37
2018-04-11T04:25:25.622Z,62.98
2018-04-11T04:27:54.019Z,62.22
2018-04-11T04:30:22.550Z,63.10
2018-04-11T04:32:50.972Z,63.64
2018-04-11T04:35:19.374Z,63.20
2018-04-11T04:37:47.849Z,66.12
2018-04-11T04:40:16.267Z,63.98
2018-04-11T04:42:44.662Z,63.57
2018-04-11T04:45:15.223Z,63.24
2018-04-11T04:47:43.678Z,62.95
2018-04-11T04:50:12.518Z,62.63
2018-04-11T04:52:40.993Z,61.84
2018-04-11T04:55:09.433Z,62.56
2018-04-11T04:57:37.843Z,62.56
2018-04-11T05:00:06.246Z,63.34
2018-04-11T05:02:34.621Z,62.68
2018-04-11T05:05:03.026Z,61.34
2018-04-11T05:07:31.406Z,60.77
2018-04-11T05:09:59.805Z,61.91
2018-04-11T05:12:28.182Z,61.55
2018-04-11T05:14:56.615Z,61.60
2018-04-11T05:17:24.994Z,63.10
2018-04-11T05:19:53.403Z,61.50
2018-04-11T05:22:21.857Z,61.12
2018-04-11T05:24:50.255Z,60.26
2018-04-11T05:27:18.772Z,60.12
2018-04-11T05:29:47.180Z,60.50
2018-04-11T05:32:15.648Z,60.79
2018-04-11T05:34:44.058Z,60.92
2018-04-11T05:37:12.657Z,59.87
2018-04-11T05:39:41.063Z,60.01
2018-04-11T05:42:09.464Z,59.01
2018-04-11T05:44:38.771Z,59.32
2018-04-11T05:47:07.182Z,60.65
2018-04-11T05:49:35.617Z,59.30
2018-04-11T05:52:04.017Z,60.23
2018-04-11T05:54:32.435Z,60.38
2018-04-11T05:57:00.819Z,60.98
2018-04-11T05:59:29.226Z,57.78
2018-04-11T06:01:57.623Z,56.90
2018-04-11T06:04:26.082Z,57.44
2018-04-11T06:06:54.502Z,57.96
2018-04-11T06:09:22.973Z,57.53
2018-04-11T06:11:51.399Z,57.52
2018-04-11T06:14:19.811Z,57.98
2018-04-11T06:16:48.297Z,59.54
2018-04-11T06:19:16.772Z,59.11
2018-04-11T06:21:45.152Z,60.06
2018-04-11T06:24:13.657Z,59.84
2018-04-11T06:26:42.151Z,60.29
2018-04-11T06:29:10.552Z,60.14
2018-04-11T06:31:39.037Z,59.29
2018-04-11T06:34:07.449Z,58.43
2018-04-11T06:36:35.863Z,58.37
2018-04-11T06:39:04.338Z,59.17
2018-04-11T06:41:32.736Z,57.37
2018-04-11T06:44:01.136Z,57.86
2018-04-11T06:46:29.528Z,57.70
2018-04-11T06:48:57.911Z,60.30
2018-04-11T06:51:26.288Z,59.68
2018-04-11T06:53:54.656Z,60.42
2018-04-11T06:56:23.038Z,60.44
2018-04-11T06:58:52.949Z,58.23
2018-04-11T07:01:21.449Z,58.87
2018-04-11T07:03:49.861Z,57.25
2018-04-11T07:06:18.281Z,56.47
2018-04-11T07:08:46.863Z,55.13
2018-04-11T07:11:15.544Z,58.93
2018-04-11T07:13:43.981Z,60.23
2018-04-11T07:16:12.364Z,59.65
2018-04-11T07:18:40.930Z,58.68
2018-04-11T07:21:09.304Z,58.73
2018-04-11T07:23:37.688Z,57.58
2018-04-11T07:26:06.152Z,59.20
2018-04-11T07:28:34.674Z,55.64
2018-04-11T07:31:03.065Z,57.19
2018-04-11T07:33:31.440Z,57.99
2018-04-11T07:35:59.804Z,56.94
2018-04-11T07:38:28.244Z,59.46
2018-04-11T07:40:56.696Z,56.97
2018-04-11T07:43:25.078Z,57.80
2018-04-11T07:45:53.546Z,57.24
2018-04-11T07:48:21.916Z,58.52
2018-04-11T07:50:50.641Z,57.88
2018-04-11T07:53:19.068Z,55.23
2018-04-11T07:55:47.471Z,58.39
2018-04-11T07:58:15.860Z,57.27
2018-04-11T08:00:44.273Z,57.35
2018-04-11T08:03:12.775Z,58.24
2018-04-11T08:05:41.224Z,58.70
2018-04-11T08:08:09.617Z,55.88
2018-04-11T08:10:38.021Z,55.85
2018-04-11T08:13:06.434Z,55.71
2018-04-11T08:15:34.913Z,57.05
2018-04-11T08:18:03.333Z,59.31
2018-04-11T08:20:32.641Z,58.09
2018-04-11T08:23:01.088Z,59.82
2018-04-11T08:25:29.538Z,61.13
2018-04-11T08:27:58.005Z,63.06
2018-04-11T08:30:26.435Z,63.21
2018-04-11T08:32:54.923Z,63.68
2018-04-11T08:35:23.373Z,63.00
2018-04-11T08:37:51.829Z,64.39
2018-04-11T08:40:20.324Z,61.04
2018-04-11T08:42:48.824Z,61.23
2018-04-11T08:45:17.231Z,64.32
2018-04-11T08:47:45.691Z,64.63
2018-04-11T08:50:14.101Z,61.86
2018-04-11T08:52:42.558Z,61.18
2018-04-11T08:55:10.955Z,62.21
2018-04-11T08:57:39.373Z,61.14
2018-04-11T09:00:07.783Z,61.65
2018-04-11T09:02:36.184Z,63.74
2018-04-11T09:05:04.578Z,64.28
2018-04-11T09:07:32.965Z,64.23
2018-04-11T09:10:01.575Z,63.29
2018-04-11T09:12:29.980Z,63.09
2018-04-11T09:14:58.486Z,64.80
2018-04-11T09:17:26.898Z,62.87
2018-04-11T09:19:55.298Z,64.12
2018-04-11T09:22:23.778Z,66.44
2018-04-11T09:24:52.213Z,64.75
2018-04-11T09:27:20.724Z,66.19
2018-04-11T09:29:49.115Z,67.50
2018-04-11T09:32:17.531Z,67.66
2018-04-11T09:34:46.042Z,66.43
2018-04-11T09:37:14.451Z,65.28
2018-04-11T09:39:42.883Z,64.56
2018-04-11T09:42:11.326Z,63.42
2018-04-11T09:44:39.748Z,65.56
2018-04-11T09:47:08.211Z,62.54
2018-04-11T09:49:36.615Z,65.39
2018-04-11T09:52:05.029Z,66.63
2018-04-11T09:54:33.453Z,64.80
2018-04-11T09:57:02.070Z,64.52
2018-04-11T09:59:30.734Z,65.98
2018-04-11T10:01:59.139Z,66.27
2018-04-11T10:04:27.589Z,66.89
2018-04-11T10:06:56.080Z,69.20
2018-04-11T10:09:24.630Z,67.87
2018-04-11T10:11:53.029Z,65.43
2018-04-11T10:14:21.556Z,64.27
2018-04-11T10:16:49.981Z,62.75
2018-04-11T10:19:18.387Z,63.02
2018-04-11T10:21:46.768Z,63.24
2018-04-11T10:24:15.268Z,63.16
2018-04-11T10:26:43.645Z,63.15
2018-04-11T10:29:12.022Z,65.25
2018-04-11T10:31:40.473Z,64.49
2018-04-11T10:34:09.137Z,66.17
2018-04-11T10:36:37.942Z,64.14
2018-04-11T10:39:06.538Z,66.60
2018-04-11T10:41:35.011Z,62.12
2018-04-11T10:44:03.478Z,63.87
2018-04-11T10:46:31.918Z,60.81
2018-04-11T10:49:00.319Z,60.66
2018-04-11T10:51:28.737Z,61.40
2018-04-11T10:53:57.160Z,62.68
2018-04-11T10:56:25.590Z,64.00
2018-04-11T10:58:54.061Z,63.87
2018-04-11T11:01:22.636Z,62.24
2018-04-11T11:03:51.148Z,60.01
2018-04-11T11:06:19.637Z,59.37
2018-04-11T11:08:48.070Z,57.01
2018-04-11T11:11:16.474Z,61.29
2018-04-11T11:13:44.965Z,63.01
2018-04-11T11:16:13.375Z,60.78
2018-04-11T11:18:41.797Z,61.11
2018-04-11T11:21:10.217Z,62.65
2018-04-11T11:23:38.637Z,61.82
2018-04-11T11:26:07.192Z,66.01
2018-04-11T11:28:35.736Z,62.23
2018-04-11T11:31:04.150Z,60.75
2018-04-11T11:33:32.706Z,62.52
2018-04-11T11:36:01.223Z,62.37
2018-04-11T11:38:30.087Z,60.22
2018-04-11T11:40:58.468Z,62.50
2018-04-11T11:43:26.926Z,57.67
2018-04-11T11:45:56.334Z,59.56
2018-04-11T11:48:24.748Z,57.84
2018-04-11T11:50:53.150Z,57.88
2018-04-11T11:53:21.559Z,59.25
2018-04-11T11:55:50.016Z,59.17
2018-04-11T11:58:18.445Z,57.15
2018-04-11T12:00:46.925Z,56.72
2018-04-11T12:03:15.409Z,57.14
2018-04-11T12:05:43.889Z,56.61
2018-04-11T12:08:12.357Z,56.66
2018-04-11T12:10:40.869Z,56.28
2018-04-11T12:13:09.287Z,55.65
2018-04-11T12:15:37.702Z,54.19
2018-04-11T12:18:06.128Z,52.64
2018-04-11T12:20:34.523Z,55.26
2018-04-11T12:23:02.897Z,53.13
2018-04-11T12:25:31.273Z,54.58
2018-04-11T12:27:59.708Z,57.88
2018-04-11T12:30:28.102Z,56.09
2018-04-11T12:32:57.432Z,54.22
2018-04-11T12:35:26.036Z,51.65
2018-04-11T12:37:54.474Z,51.40
2018-04-11T12:40:22.922Z,52.19
2018-04-11T12:42:51.350Z,51.32
2018-04-11T12:45:21.783Z,50.96
2018-04-11T12:47:50.259Z,51.63
2018-04-11T12:50:18.792Z,52.47
2018-04-11T12:52:47.264Z,53.31
2018-04-11T12:55:15.902Z,50.73
2018-04-11T12:57:45.192Z,50.50
2018-04-11T13:00:14.506Z,52.40
2018-04-11T13:02:43.082Z,49.20
2018-04-11T13:05:11.631Z,48.19
2018-04-11T13:07:40.123Z,47.33
2018-04-11T13:10:08.520Z,49.67
2018-04-11T13:12:37.851Z,49.30
2018-04-11T13:15:06.276Z,47.94
2018-04-11T13:17:35.490Z,45.47
2018-04-11T13:20:03.914Z,48.21
2018-04-11T13:22:32.303Z,47.15
2018-04-11T13:25:00.710Z,43.45
2018-04-11T13:27:29.111Z,44.74
2018-04-11T13:29:57.623Z,44.52
2018-04-11T13:32:26.535Z,45.70
2018-04-11T13:34:55.154Z,44.96
2018-04-11T13:37:23.705Z,42.95
2018-04-11T13:39:52.157Z,44.99
2018-04-11T13:42:20.587Z,47.83
2018-04-11T13:44:49.013Z,46.95
2018-04-11T13:47:17.533Z,45.63
2018-04-11T13:49:46.006Z,45.97
2018-04-11T13:52:14.440Z,47.00
2018-04-11T13:54:42.918Z,46.49
2018-04-11T13:57:11.437Z,44.81
2018-04-11T13:59:39.963Z,44.76
2018-04-11T14:02:08.354Z,43.02
2018-04-11T14:04:36.765Z,43.91
2018-04-11T14:07:05.172Z,44.42
2018-04-11T14:09:33.607Z,44.68
2018-04-11T14:12:02.095Z,43.55
2018-04-11T14:14:30.549Z,45.48
2018-04-11T14:16:59.333Z,45.87
2018-04-11T14:19:27.765Z,46.09
2018-04-11T14:21:56.165Z,44.94
2018-04-11T14:24:24.895Z,44.51
2018-04-11T14:26:53.314Z,42.60
2018-04-11T14:29:22.033Z,45.24
2018-04-11T14:31:51.368Z,44.69
2018-04-11T14:34:19.772Z,41.24
2018-04-11T14:36:48.429Z,43.17
2018-04-11T14:39:16.815Z,41.06
2018-04-11T14:41:45.193Z,41.34
2018-04-11T14:44:13.613Z,42.88
2018-04-11T14:46:42.121Z,42.62
2018-04-11T14:49:10.797Z,40.61
2018-04-11T14:51:39.453Z,43.97
2018-04-11T14:54:07.965Z,42.20
2018-04-11T14:56:36.350Z,43.95
2018-04-11T14:59:04.709Z,42.95
2018-04-11T15:01:33.223Z,44.28
2018-04-11T15:04:01.643Z,43.58
2018-04-11T15:06:30.155Z,43.48
2018-04-11T15:08:58.572Z,45.03
2018-04-11T15:11:27.020Z,43.88
2018-04-11T15:13:55.547Z,43.45
2018-04-11T15:16:24.080Z,45.38
2018-04-11T15:18:53.573Z,45.57
2018-04-11T15:21:22.167Z,46.80
2018-04-11T15:23:52.792Z,44.98
2018-04-11T15:26:21.475Z,43.27
2018-04-11T15:28:49.970Z,44.87
2018-04-11T15:31:18.508Z,43.31
2018-04-11T15:33:46.987Z,43.99
2018-04-11T15:36:15.700Z,46.67
2018-04-11T15:38:44.148Z,47.71
2018-04-11T15:41:12.613Z,46.71
2018-04-11T15:43:41.112Z,48.05
2018-04-11T15:46:21.407Z,45.82
2018-04-11T15:48:49.844Z,44.97
2018-04-11T15:51:18.364Z,45.56
2018-04-11T15:53:46.925Z,46.92
2018-04-11T15:56:15.632Z,47.71
2018-04-11T15:58:44.065Z,44.45
2018-04-11T16:01:13.489Z,43.99
2018-04-11T16:03:41.899Z,44.84
2018-04-11T16:06:10.300Z,44.37
2018-04-11T16:08:38.689Z,44.63
2018-04-11T16:11:07.125Z,45.85
2018-04-11T16:13:35.539Z,45.00
2018-04-11T16:16:03.936Z,43.88
2018-04-11T16:18:32.335Z,43.30
2018-04-11T16:21:00.804Z,46.20
2018-04-11T16:23:29.218Z,43.43
2018-04-11T16:25:57.673Z,42.94
2018-04-11T16:28:30.803Z,43.36
2018-04-11T16:30:59.272Z,42.79
2018-04-11T16:33:27.683Z,46.03
2018-04-11T16:35:56.109Z,41.43
2018-04-11T16:38:24.515Z,42.19
2018-04-11T16:40:52.889Z,41.57
2018-04-11T16:43:21.369Z,40.35
2018-04-11T16:45:49.755Z,39.01
2018-04-11T16:48:18.233Z,39.53
2018-04-11T16:50:46.622Z,43.30
2018-04-11T16:53:15.064Z,41.47
2018-04-11T16:55:43.431Z,41.59
2018-04-11T16:58:11.916Z,42.11
2018-04-11T17:00:40.358Z,41.37
2018-04-11T17:03:09.379Z,42.04
2018-04-11T17:05:37.887Z,42.77
2018-04-11T17:08:07.030Z,42.17
2018-04-11T17:10:35.626Z,44.44
2018-04-11T17:13:04.130Z,44.18
2018-04-11T17:15:32.522Z,42.80
2018-04-11T17:18:02.532Z,41.87
2018-04-11T17:20:43.448Z,41.28
2018-04-11T17:23:23.659Z,43.76
2018-04-11T17:26:03.908Z,43.37
2018-04-11T17:28:44.086Z,43.07
2018-04-11T17:31:31.715Z,43.90
2018-04-11T17:34:00.141Z,44.46
2018-04-11T17:36:28.627Z,46.72
2018-04-11T17:38:57.073Z,45.18
2018-04-11T17:41:25.477Z,45.02
2018-04-11T17:43:54.134Z,45.10
2018-04-11T17:46:23.046Z,45.90
2018-04-11T17:48:51.941Z,45.04
2018-04-11T17:51:20.980Z,46.57
2018-04-11T17:53:49.529Z,44.79
2018-04-11T17:56:17.923Z,45.40
2018-04-11T17:58:46.332Z,44.81
2018-04-11T18:01:14.833Z,44.41
2018-04-11T18:03:43.546Z,45.06
2018-04-11T18:06:11.941Z,44.76
2018-04-11T18:08:40.390Z,44.35
2018-04-11T18:11:08.758Z,44.74
2018-04-11T18:13:37.326Z,45.81
2018-04-11T18:16:05.746Z,46.67
2018-04-11T18:18:34.667Z,45.45
2018-04-11T18:21:03.309Z,45.21
2018-04-11T18:23:31.691Z,45.68
2018-04-11T18:26:00.171Z,47.40
2018-04-11T18:28:28.615Z,46.49
2018-04-11T18:31:02.131Z,48.72
2018-04-11T18:33:36.229Z,47.62
2018-04-11T18:36:04.624Z,48.91
2018-04-11T18:38:33.149Z,48.35
2018-04-11T18:41:01.571Z,48.19
2018-04-11T18:43:29.992Z,48.12
2018-04-11T18:45:58.409Z,49.62
2018-04-11T18:48:26.888Z,50.12
2018-04-11T18:53:35.292Z,50.46
2018-04-11T18:56:03.769Z,51.47
2018-04-11T18:58:32.227Z,50.84
2018-04-11T19:01:00.642Z,50.83
2018-04-11T19:03:29.080Z,49.77
2018-04-11T19:11:57.032Z,51.61
2018-04-11T19:14:25.521Z,51.30
2018-04-11T19:17:10.069Z,52.45
2018-04-11T19:19:38.509Z,49.39
2018-04-11T19:22:06.936Z,50.59
2018-04-11T19:24:36.274Z,50.59
2018-04-11T19:27:04.826Z,50.83
2018-04-11T19:29:33.329Z,50.42
2018-04-11T19:32:02.075Z,50.67
2018-04-11T19:35:24.521Z,50.69
2018-04-11T19:37:53.135Z,49.55
2018-04-11T19:40:21.536Z,49.67
2018-04-11T19:42:49.977Z,50.24
2018-04-11T19:45:18.489Z,50.59
2018-04-11T19:47:46.895Z,50.30
2018-04-11T19:50:15.334Z,50.27
2018-04-11T19:52:43.871Z,51.51
2018-04-11T19:55:12.348Z,51.28
2018-04-11T19:57:40.883Z,52.21
2018-04-11T20:00:09.528Z,52.08
2018-04-11T20:02:38.119Z,51.76
2018-04-11T20:05:06.535Z,51.46
2018-04-11T20:07:35.093Z,51.51
2018-04-11T20:10:03.501Z,51.27
2018-04-11T20:15:20.418Z,51.76
2018-04-11T20:17:48.951Z,51.80
2018-04-11T20:20:17.363Z,51.67
2018-04-11T20:22:45.709Z,51.50
2018-04-11T20:25:14.084Z,52.24
2018-04-11T20:27:42.683Z,52.72
2018-04-11T20:30:11.200Z,53.11
2018-04-11T20:32:39.600Z,48.76
2018-04-11T20:35:07.991Z,55.56
2018-04-11T20:37:36.364Z,57.06
2018-04-11T20:40:05.184Z,57.31
2018-04-11T20:42:33.583Z,57.75
2018-04-11T20:45:02.064Z,56.32
2018-04-11T20:47:30.509Z,56.90
2018-04-11T20:49:58.987Z,56.91
2018-04-11T20:52:27.369Z,56.03
2018-04-11T20:54:55.740Z,57.02
2018-04-11T20:57:24.094Z,56.61
2018-04-11T20:59:52.553Z,57.62
2018-04-11T21:02:20.916Z,57.09
2018-04-11T21:04:49.502Z,56.59
2018-04-11T21:07:17.979Z,58.78
2018-04-11T21:09:46.338Z,58.75
2018-04-11T21:12:14.728Z,57.95
2018-04-11T21:14:43.094Z,58.63
2018-04-11T21:17:11.495Z,58.06
2018-04-11T21:19:39.853Z,59.21
2018-04-11T21:22:08.478Z,59.18
2018-04-11T21:24:36.899Z,57.96
2018-04-11T21:27:05.308Z,57.72
2018-04-11T21:29:33.757Z,58.80
2018-04-11T21:32:02.189Z,57.62
2018-04-11T21:34:30.571Z,59.18
2018-04-11T21:36:58.961Z,58.19
2018-04-11T21:39:27.352Z,57.75
2018-04-11T21:41:55.834Z,58.22
2018-04-11T21:44:24.288Z,59.43
2018-04-11T21:46:53.350Z,58.97
2018-04-11T21:49:21.864Z,60.73
2018-04-11T21:51:52.322Z,59.72
2018-04-11T21:54:20.783Z,60.12
2018-04-11T21:56:49.253Z,59.84
2018-04-11T21:59:17.800Z,58.59
2018-04-11T22:01:48.153Z,58.23
2018-04-11T22:04:16.572Z,59.09
2018-04-11T22:06:45.063Z,58.60
2018-04-11T22:09:13.464Z,58.26
2018-04-11T22:11:42.086Z,59.43
2018-04-11T22:14:10.480Z,59.19
2018-04-11T22:16:38.899Z,58.55
2018-04-11T22:19:07.309Z,58.93
2018-04-11T22:21:35.721Z,58.17
2018-04-11T22:24:04.179Z,58.63
2018-04-11T22:26:32.561Z,59.00
2018-04-11T22:29:00.986Z,60.63
2018-04-11T22:31:29.377Z,59.94
2018-04-11T22:33:57.785Z,60.66
2018-04-11T22:36:26.230Z,59.77
2018-04-11T22:38:54.693Z,58.51
2018-04-11T22:41:23.085Z,59.50
2018-04-11T22:43:51.478Z,59.30
2018-04-11T22:46:19.887Z,64.65
2018-04-11T22:48:48.302Z,62.22
2018-04-11T22:51:16.701Z,62.23
2018-04-11T22:53:45.085Z,61.61
2018-04-11T22:56:13.491Z,59.62
2018-04-11T22:58:41.865Z,59.58
2018-04-11T23:01:10.309Z,59.34
2018-04-11T23:03:38.669Z,62.70
2018-04-11T23:06:07.044Z,62.68
2018-04-11T23:08:35.421Z,66.78
2018-04-11T23:11:03.814Z,66.19
2018-04-11T23:13:32.224Z,69.66
2018-04-11T23:16:00.607Z,67.87
2018-04-11T23:18:29.046Z,65.37
2018-04-11T23:20:57.417Z,66.86
2018-04-11T23:23:26.126Z,65.91
2018-04-11T23:25:58.207Z,64.27
2018-04-11T23:28:26.815Z,64.34
2018-04-11T23:30:55.263Z,65.53
2018-04-11T23:33:23.629Z,63.59
2018-04-11T23:35:52.009Z,62.44
2018-04-11T23:38:20.389Z,62.01
2018-04-11T23:40:48.770Z,64.68
2018-04-11T23:43:17.214Z,63.10
2018-04-11T23:45:45.589Z,62.19
2018-04-11T23:48:13.969Z,63.22
2018-04-11T23:50:42.437Z,62.49
2018-04-11T23:53:10.813Z,64.55
2018-04-11T23:55:39.240Z,64.32
2018-04-11T23:58:07.625Z,67.47
